Time;durP1;ratioP1;P1;durP2;ratioP2;P2;SDS_P1;SDS_P2;PMS_P1;PMS_P2;Temp;Humidity;BMP_temperature;BMP_pressure;BME280_temperature;BME280_humidity;BME280_pressure;Samples;Min_cycle;Max_cycle;Signal;HPM_P1;HPM_P2
2023/04/13 00:00:07;;;;;;;6.10;2.87;;;8.90;99.90;;;;;;4895426;29;20746;-77
2023/04/13 00:02:37;;;;;;;2.10;2.00;;;9.00;99.90;;;;;;4879252;29;20471;-76
2023/04/13 00:05:06;;;;;;;2.23;2.07;;;9.00;99.90;;;;;;4896237;29;20510;-77
2023/04/13 00:07:32;;;;;;;2.60;2.50;;;9.20;99.90;;;;;;4895870;29;20463;-75
2023/04/13 00:10:01;;;;;;;2.33;2.23;;;9.30;99.90;;;;;;4895300;29;20983;-75
2023/04/13 00:12:27;;;;;;;2.20;2.20;;;9.40;99.90;;;;;;4898987;29;20428;-75
2023/04/13 00:14:53;;;;;;;2.73;2.53;;;9.30;99.90;;;;;;4895320;29;21139;-76
2023/04/13 00:17:19;;;;;;;2.47;2.37;;;9.30;99.90;;;;;;4898392;29;20424;-76
2023/04/13 00:19:49;;;;;;;2.40;2.30;;;9.40;99.90;;;;;;4900299;29;20208;-76
2023/04/13 00:22:15;;;;;;;2.20;2.10;;;9.50;99.90;;;;;;4899526;29;20207;-76
2023/04/13 00:24:42;;;;;;;2.20;2.03;;;9.50;99.90;;;;;;4900188;29;20938;-76
2023/04/13 00:27:09;;;;;;;2.10;2.00;;;9.50;99.90;;;;;;4898599;29;20432;-77
2023/04/13 00:29:35;;;;;;;2.10;2.00;;;9.60;99.90;;;;;;4899667;29;20424;-76
2023/04/13 00:32:01;;;;;;;2.30;2.20;;;9.40;99.90;;;;;;4898993;29;20431;-77
2023/04/13 00:34:27;;;;;;;2.70;2.50;;;9.40;99.90;;;;;;4899792;29;20424;-76
2023/04/13 00:36:53;;;;;;;2.30;2.20;;;9.10;99.90;;;;;;4899856;29;20433;-76
2023/04/13 00:39:22;;;;;;;2.13;2.13;;;9.10;99.90;;;;;;4898865;29;20522;-76
2023/04/13 00:41:49;;;;;;;3.10;2.50;;;9.10;99.90;;;;;;4899420;29;20698;-76
2023/04/13 00:44:18;;;;;;;2.40;2.20;;;9.10;99.90;;;;;;4898295;29;20420;-76
2023/04/13 00:46:46;;;;;;;2.60;2.50;;;9.10;99.90;;;;;;4897820;29;20439;-76
2023/04/13 00:49:14;;;;;;;2.50;2.40;;;9.10;99.90;;;;;;4897392;29;20499;-76
2023/04/13 00:51:42;;;;;;;2.10;2.00;;;9.10;99.90;;;;;;4897997;29;20784;-76
2023/04/13 00:54:09;;;;;;;2.50;2.30;;;9.20;99.90;;;;;;4897472;29;20507;-76
2023/04/13 00:56:36;;;;;;;2.53;1.80;;;9.30;99.90;;;;;;4898086;29;20547;-76
2023/04/13 00:59:02;;;;;;;2.13;1.93;;;9.30;99.90;;;;;;4896791;29;20443;-76
2023/04/13 01:01:29;;;;;;;2.67;2.43;;;9.30;99.90;;;;;;4898301;29;20451;-76
2023/04/13 01:03:55;;;;;;;2.30;2.10;;;9.20;99.90;;;;;;4898267;29;20415;-76
2023/04/13 01:06:25;;;;;;;3.90;2.17;;;9.30;99.90;;;;;;4897612;29;20496;-76
2023/04/13 01:09:05;;;;;;;2.30;2.10;;;9.30;99.90;;;;;;4887466;29;20409;-76
2023/04/13 01:11:38;;;;;;;2.80;2.00;;;9.30;99.90;;;;;;4897871;29;20435;-76
2023/04/13 01:14:36;;;;;;;2.37;2.17;;;9.40;99.90;;;;;;4896463;29;20439;-77
2023/04/13 01:17:16;;;;;;;2.23;2.03;;;9.50;99.90;;;;;;4897390;29;20740;-77
2023/04/13 01:19:58;;;;;;;1.87;1.77;;;9.30;99.90;;;;;;4898778;29;20427;-76
2023/04/13 01:22:34;;;;;;;1.90;1.80;;;9.40;99.90;;;;;;4881714;29;20436;-76
2023/04/13 01:25:29;;;;;;;2.13;1.90;;;9.50;99.90;;;;;;4897340;29;20427;-77
2023/04/13 01:27:57;;;;;;;1.90;1.90;;;9.50;99.90;;;;;;4880150;29;20413;-76
2023/04/13 01:30:27;;;;;;;1.80;1.80;;;9.50;99.90;;;;;;4891723;29;20967;-75
2023/04/13 01:32:53;;;;;;;2.57;2.40;;;9.50;99.90;;;;;;4899042;29;20414;-76
2023/04/13 01:35:21;;;;;;;1.93;1.83;;;9.50;99.90;;;;;;4897588;29;20502;-76
2023/04/13 01:37:51;;;;;;;1.87;1.87;;;9.60;99.90;;;;;;4898354;29;20412;-76
2023/04/13 01:40:20;;;;;;;2.07;1.90;;;9.30;99.90;;;;;;4895932;29;20459;-76
2023/04/13 01:42:46;;;;;;;2.10;2.00;;;9.30;99.90;;;;;;4898239;29;20440;-76
2023/04/13 01:45:20;;;;;;;2.20;2.10;;;9.30;99.90;;;;;;4897174;29;20798;-76
2023/04/13 01:48:06;;;;;;;2.43;2.33;;;9.40;99.90;;;;;;4898683;29;20404;-76
2023/04/13 01:50:37;;;;;;;2.33;2.13;;;9.30;99.90;;;;;;4897391;29;20963;-76
2023/04/13 01:53:07;;;;;;;2.50;2.00;;;9.20;99.90;;;;;;4896456;29;20441;-76
2023/04/13 01:55:37;;;;;;;2.00;1.90;;;9.20;99.90;;;;;;4898489;29;20494;-75
2023/04/13 01:58:05;;;;;;;2.20;1.70;;;9.20;99.90;;;;;;4896905;29;20443;-77
2023/04/13 02:00:35;;;;;;;1.90;1.80;;;9.30;99.90;;;;;;4898425;29;20462;-76
2023/04/13 02:03:08;;;;;;;1.83;1.70;;;9.20;99.90;;;;;;4895860;29;20431;-77
2023/04/13 02:05:35;;;;;;;1.90;1.80;;;9.20;99.90;;;;;;4898427;29;20403;-76
2023/04/13 02:08:04;;;;;;;1.80;1.70;;;9.20;99.90;;;;;;4896956;29;20936;-77
2023/04/13 02:10:31;;;;;;;1.90;1.80;;;9.20;99.90;;;;;;4897779;29;20421;-76
2023/04/13 02:12:57;;;;;;;1.70;1.60;;;9.40;99.90;;;;;;4880750;29;20484;-76
2023/04/13 02:15:23;;;;;;;2.07;1.97;;;9.40;99.90;;;;;;4896350;29;20402;-76
2023/04/13 02:17:49;;;;;;;2.03;1.90;;;9.40;99.90;;;;;;4898046;29;20412;-76
2023/04/13 02:20:17;;;;;;;2.00;1.90;;;9.30;99.90;;;;;;4897040;29;20199;-76
2023/04/13 02:22:44;;;;;;;2.43;1.90;;;9.40;99.90;;;;;;4898152;29;20468;-76
2023/04/13 02:25:11;;;;;;;2.03;1.93;;;9.40;99.90;;;;;;4895783;29;20433;-76
2023/04/13 02:27:38;;;;;;;2.50;1.80;;;9.40;99.90;;;;;;4897645;29;20476;-76
2023/04/13 02:30:11;;;;;;;1.83;1.80;;;9.40;99.90;;;;;;4897263;29;20498;-77
2023/04/13 02:32:39;;;;;;;2.23;2.10;;;9.40;99.90;;;;;;4897745;29;20419;-76
2023/04/13 02:35:08;;;;;;;2.60;2.00;;;9.10;99.90;;;;;;4895981;29;20428;-77
2023/04/13 02:37:38;;;;;;;2.37;2.27;;;9.10;99.90;;;;;;4897873;29;20404;-76
2023/04/13 02:40:07;;;;;;;1.97;1.90;;;9.20;99.90;;;;;;4895929;29;20795;-77
2023/04/13 02:42:33;;;;;;;1.90;1.80;;;9.20;99.90;;;;;;4897333;29;20436;-76
2023/04/13 02:44:59;;;;;;;1.87;1.83;;;9.30;99.90;;;;;;4897802;29;20478;-76
2023/04/13 02:47:25;;;;;;;2.17;1.97;;;9.40;99.90;;;;;;4896825;29;20408;-76
2023/04/13 02:49:51;;;;;;;4.30;1.70;;;9.50;99.90;;;;;;4880570;29;20654;-76
2023/04/13 02:52:16;;;;;;;2.47;2.13;;;9.50;99.90;;;;;;4896882;29;20448;-76
2023/04/13 02:54:42;;;;;;;3.23;3.03;;;9.60;99.90;;;;;;4897508;29;20644;-75
2023/04/13 02:57:12;;;;;;;2.00;1.90;;;9.60;99.90;;;;;;4896701;29;20223;-76
2023/04/13 02:59:41;;;;;;;1.83;1.60;;;9.50;99.90;;;;;;4897405;29;20423;-76
2023/04/13 03:02:07;;;;;;;2.13;1.87;;;9.50;99.90;;;;;;4895844;29;20514;-77
2023/04/13 03:04:33;;;;;;;2.30;2.10;;;9.60;99.90;;;;;;4897192;29;20425;-76
2023/04/13 03:06:59;;;;;;;1.87;1.77;;;9.60;99.90;;;;;;4897441;29;20813;-75
2023/04/13 03:09:25;;;;;;;1.50;1.50;;;9.70;99.90;;;;;;4896415;29;20584;-77
2023/04/13 03:11:51;;;;;;;1.90;1.80;;;9.70;99.90;;;;;;4878373;29;20251;-76
2023/04/13 03:14:22;;;;;;;2.30;1.87;;;9.80;99.90;;;;;;4896075;29;20435;-75
2023/04/13 03:16:48;;;;;;;2.67;1.60;;;9.70;99.90;;;;;;4878545;29;20447;-75
2023/04/13 03:19:15;;;;;;;1.60;1.50;;;9.70;99.90;;;;;;4895504;29;20412;-76
2023/04/13 03:21:43;;;;;;;2.80;1.80;;;9.70;99.90;;;;;;4896223;29;20459;-74
2023/04/13 03:24:10;;;;;;;1.63;1.50;;;9.60;99.90;;;;;;4895199;29;20431;-75
2023/04/13 03:26:36;;;;;;;1.87;1.77;;;9.40;99.90;;;;;;4896918;29;20436;-75
2023/04/13 03:29:02;;;;;;;1.90;1.80;;;9.50;99.90;;;;;;4897176;29;20444;-75
2023/04/13 03:31:29;;;;;;;1.80;1.70;;;9.40;99.90;;;;;;4895034;29;20946;-75
2023/04/13 03:33:57;;;;;;;2.67;2.10;;;9.40;99.90;;;;;;4895777;29;20424;-75
2023/04/13 03:36:23;;;;;;;1.90;1.80;;;9.40;99.90;;;;;;4896304;29;20420;-75
2023/04/13 03:38:49;;;;;;;1.90;1.80;;;9.40;99.90;;;;;;4897395;29;20418;-74
2023/04/13 03:41:15;;;;;;;1.80;1.70;;;9.40;99.90;;;;;;4893910;29;20894;-75
2023/04/13 03:43:41;;;;;;;1.90;1.80;;;9.40;99.90;;;;;;4895287;29;20640;-75
2023/04/13 03:46:07;;;;;;;1.77;1.77;;;9.50;99.90;;;;;;4891308;29;20800;-75
2023/04/13 03:48:33;;;;;;;2.33;2.13;;;9.40;99.90;;;;;;4897501;29;20227;-75
2023/04/13 03:50:59;;;;;;;2.60;2.50;;;9.40;99.90;;;;;;4898324;29;20424;-75
2023/04/13 03:53:25;;;;;;;1.60;1.60;;;9.30;99.90;;;;;;4884681;29;20179;-75
2023/04/13 03:55:51;;;;;;;1.67;1.67;;;9.20;99.90;;;;;;4895172;29;20222;-75
2023/04/13 03:58:17;;;;;;;2.70;2.50;;;9.20;99.90;;;;;;4900011;29;20430;-75
2023/04/13 04:00:43;;;;;;;2.00;2.00;;;9.10;99.90;;;;;;4900386;29;20454;-75
2023/04/13 04:03:09;;;;;;;1.50;1.50;;;9.10;99.90;;;;;;4899903;29;20416;-75
2023/04/13 04:05:37;;;;;;;2.80;2.70;;;9.00;99.90;;;;;;4900336;29;20800;-75
2023/04/13 04:08:03;;;;;;;2.40;2.30;;;9.20;99.90;;;;;;4900640;29;20525;-77
2023/04/13 04:10:29;;;;;;;3.53;2.37;;;9.30;99.90;;;;;;4899926;29;22343;-76
2023/04/13 04:12:56;;;;;;;2.83;2.30;;;9.40;99.90;;;;;;4900770;29;20426;-75
2023/04/13 04:15:22;;;;;;;2.80;2.70;;;9.40;99.90;;;;;;4898072;29;21078;-76
2023/04/13 04:17:48;;;;;;;2.37;2.27;;;9.30;99.90;;;;;;4881411;29;20464;-76
2023/04/13 04:20:15;;;;;;;2.90;2.70;;;9.30;99.90;;;;;;4890045;29;20530;-76
2023/04/13 04:22:43;;;;;;;3.87;3.60;;;9.30;99.90;;;;;;4898084;29;20248;-75
2023/04/13 04:25:10;;;;;;;2.80;2.63;;;9.40;99.90;;;;;;4899735;29;20761;-76
2023/04/13 04:27:38;;;;;;;2.93;2.83;;;9.40;99.90;;;;;;4900246;29;20419;-75
2023/04/13 04:30:05;;;;;;;3.93;3.53;;;9.50;99.90;;;;;;4899594;29;20434;-76
2023/04/13 04:32:32;;;;;;;3.90;3.70;;;9.50;99.90;;;;;;4883348;29;20455;-76
2023/04/13 04:34:59;;;;;;;2.80;2.70;;;9.40;99.90;;;;;;4899218;29;20432;-76
2023/04/13 04:37:25;;;;;;;3.30;3.13;;;9.40;99.90;;;;;;4882467;29;20427;-76
2023/04/13 04:39:52;;;;;;;2.33;2.23;;;9.40;99.90;;;;;;4900054;29;20415;-75
2023/04/13 04:42:20;;;;;;;2.50;2.40;;;9.50;99.90;;;;;;4898776;29;20214;-75
2023/04/13 04:44:48;;;;;;;2.47;2.37;;;9.50;99.90;;;;;;4899939;29;20407;-75
2023/04/13 04:47:18;;;;;;;2.00;1.90;;;9.50;99.90;;;;;;4899082;29;20416;-76
2023/04/13 04:49:44;;;;;;;2.50;2.40;;;9.60;99.90;;;;;;4899813;29;20531;-75
2023/04/13 04:52:11;;;;;;;2.20;2.07;;;9.60;99.90;;;;;;4897298;29;20436;-79
2023/04/13 04:54:38;;;;;;;2.60;2.50;;;9.60;99.90;;;;;;4885082;29;20420;-79
2023/04/13 04:57:04;;;;;;;2.73;2.63;;;9.60;99.90;;;;;;4880876;29;20866;-83
2023/04/13 04:59:30;;;;;;;3.17;2.87;;;9.60;99.90;;;;;;4895387;29;20454;-79
2023/04/13 05:01:56;;;;;;;2.90;2.70;;;9.60;99.90;;;;;;4896993;29;20468;-80
2023/04/13 05:04:21;;;;;;;2.00;1.90;;;9.70;99.90;;;;;;4898132;29;20183;-79
2023/04/13 05:06:48;;;;;;;2.30;2.20;;;9.70;99.90;;;;;;4899595;29;20190;-79
2023/04/13 05:09:14;;;;;;;2.70;2.50;;;9.70;99.90;;;;;;4896742;29;20425;-78
2023/04/13 05:11:40;;;;;;;2.43;2.43;;;9.70;99.90;;;;;;4898721;29;20436;-78
2023/04/13 05:14:06;;;;;;;4.50;4.10;;;9.60;99.90;;;;;;4898597;29;20193;-76
2023/04/13 05:16:32;;;;;;;3.67;3.37;;;9.70;99.90;;;;;;4898850;29;20404;-76
2023/04/13 05:18:58;;;;;;;3.33;3.00;;;10.00;99.90;;;;;;4899230;29;20426;-80
2023/04/13 05:21:25;;;;;;;3.77;3.57;;;10.40;99.90;;;;;;4898065;29;20467;-76
2023/04/13 05:23:52;;;;;;;3.03;2.80;;;11.00;99.90;;;;;;4898586;29;20590;-76
2023/04/13 05:26:19;;;;;;;3.23;3.03;;;11.50;99.90;;;;;;4891616;29;20507;-76
2023/04/13 05:28:45;;;;;;;4.60;4.20;;;11.90;99.90;;;;;;4890670;29;20974;-76
2023/04/13 05:31:10;;;;;;;2.73;2.63;;;12.30;99.90;;;;;;4891864;29;20527;-79
2023/04/13 05:33:36;;;;;;;3.00;2.80;;;12.60;99.90;;;;;;4881318;29;20779;-79
2023/04/13 05:36:03;;;;;;;2.63;2.43;;;12.60;99.90;;;;;;4898012;29;20632;-79
2023/04/13 05:38:29;;;;;;;2.83;2.63;;;12.20;99.90;;;;;;4895265;29;20436;-79
2023/04/13 05:40:56;;;;;;;2.60;2.50;;;12.00;99.90;;;;;;4897851;29;20821;-79
2023/04/13 05:43:22;;;;;;;3.10;2.90;;;11.70;99.90;;;;;;4880802;29;20519;-80
2023/04/13 05:45:48;;;;;;;3.07;2.87;;;11.30;99.90;;;;;;4897150;29;20561;-79
2023/04/13 05:48:14;;;;;;;2.53;2.33;;;11.10;99.90;;;;;;4898351;29;20512;-80
2023/04/13 05:50:40;;;;;;;3.27;3.07;;;11.10;99.90;;;;;;4881842;29;20615;-80
2023/04/13 05:53:06;;;;;;;4.10;3.40;;;11.00;99.90;;;;;;4895353;29;20430;-80
2023/04/13 05:55:32;;;;;;;3.20;3.00;;;11.00;99.90;;;;;;4878896;29;20576;-81
2023/04/13 05:57:59;;;;;;;4.73;4.30;;;10.80;99.90;;;;;;4879724;29;20518;-75
2023/04/13 06:00:26;;;;;;;4.10;2.77;;;10.70;99.90;;;;;;4879374;29;20468;-79
2023/04/13 06:02:52;;;;;;;2.93;2.40;;;10.60;99.90;;;;;;4879768;29;20419;-79
2023/04/13 06:05:18;;;;;;;2.90;2.70;;;10.50;99.90;;;;;;4878398;29;20429;-79
2023/04/13 06:07:45;;;;;;;2.57;2.47;;;10.40;99.90;;;;;;4879321;29;20846;-78
2023/04/13 06:10:15;;;;;;;3.20;3.00;;;10.20;99.90;;;;;;4878183;29;20922;-78
2023/04/13 06:12:47;;;;;;;2.63;2.43;;;10.20;99.90;;;;;;4878363;29;20435;-78
2023/04/13 06:15:13;;;;;;;3.33;3.13;;;10.10;99.90;;;;;;4878919;29;20416;-79
2023/04/13 06:17:39;;;;;;;3.20;3.00;;;10.10;99.90;;;;;;4894368;29;20420;-79
2023/04/13 06:20:07;;;;;;;2.97;2.80;;;10.10;99.90;;;;;;4879663;29;20445;-83
2023/04/13 06:22:33;;;;;;;4.50;4.30;;;10.10;99.90;;;;;;4876881;29;20442;-82
2023/04/13 06:24:59;;;;;;;3.53;3.33;;;10.20;99.90;;;;;;4879513;29;20443;-81
2023/04/13 06:27:25;;;;;;;3.20;3.00;;;10.10;99.90;;;;;;4859835;29;20445;-82
2023/04/13 06:29:51;;;;;;;4.83;2.60;;;10.10;99.90;;;;;;4893055;29;20413;-82
2023/04/13 06:32:17;;;;;;;3.20;3.00;;;10.00;99.90;;;;;;4877001;29;20439;-82
2023/04/13 06:34:44;;;;;;;3.10;2.90;;;10.10;99.90;;;;;;4879237;29;20217;-81
2023/04/13 06:37:10;;;;;;;3.50;3.20;;;10.10;99.90;;;;;;4878861;29;20172;-82
2023/04/13 06:39:36;;;;;;;3.47;3.30;;;10.00;99.90;;;;;;4862400;29;20421;-81
2023/04/13 06:42:05;;;;;;;3.60;3.40;;;10.00;99.90;;;;;;4878858;29;20481;-81
2023/04/13 06:44:31;;;;;;;3.90;3.60;;;10.10;99.90;;;;;;4878038;29;20425;-82
2023/04/13 06:46:57;;;;;;;3.77;3.57;;;10.20;99.90;;;;;;4877977;29;20428;-82
2023/04/13 06:49:23;;;;;;;3.00;2.90;;;10.20;99.90;;;;;;4878489;29;20411;-82
2023/04/13 06:51:48;;;;;;;3.20;3.00;;;10.30;99.90;;;;;;4877110;29;20494;-82
2023/04/13 06:54:14;;;;;;;3.60;3.40;;;10.40;99.90;;;;;;4875110;29;20180;-82
2023/04/13 06:56:40;;;;;;;3.40;3.20;;;10.50;99.90;;;;;;4888671;29;20238;-82
2023/04/13 06:59:05;;;;;;;3.33;3.13;;;10.50;99.90;;;;;;4890064;29;20635;-82
2023/04/13 07:01:31;;;;;;;4.03;3.20;;;10.60;99.90;;;;;;4876558;29;20702;-82
2023/04/13 07:04:01;;;;;;;3.40;3.20;;;10.70;99.90;;;;;;4880664;29;20185;-82
2023/04/13 07:06:27;;;;;;;4.10;3.23;;;10.70;99.90;;;;;;4897161;29;20755;-82
2023/04/13 07:08:53;;;;;;;3.97;3.10;;;10.70;99.90;;;;;;4896700;29;20437;-82
2023/04/13 07:11:19;;;;;;;4.97;3.10;;;10.70;99.90;;;;;;4904496;29;20434;-81
2023/04/13 07:13:45;;;;;;;2.73;2.60;;;10.60;99.90;;;;;;4903699;29;20183;-82
2023/04/13 07:16:11;;;;;;;2.97;2.77;;;10.60;99.90;;;;;;4878894;29;20439;-83
2023/04/13 07:18:37;;;;;;;2.70;2.60;;;10.70;99.90;;;;;;4880035;29;20196;-82
2023/04/13 07:21:03;;;;;;;2.60;2.40;;;10.70;99.90;;;;;;4880686;29;20448;-82
2023/04/13 07:23:29;;;;;;;4.10;3.80;;;10.50;99.90;;;;;;4894787;29;21013;-82
2023/04/13 07:25:55;;;;;;;3.70;3.40;;;10.60;99.90;;;;;;4895997;29;20433;-82
2023/04/13 07:28:21;;;;;;;3.57;3.37;;;10.80;99.90;;;;;;4884303;29;20194;-82
2023/04/13 07:30:47;;;;;;;3.97;3.77;;;10.70;99.90;;;;;;4874157;29;20234;-81
2023/04/13 07:33:12;;;;;;;4.00;3.70;;;10.80;99.90;;;;;;4895880;29;20191;-82
2023/04/13 07:35:39;;;;;;;3.20;2.80;;;10.90;99.90;;;;;;4879096;29;20215;-81
2023/04/13 07:38:05;;;;;;;3.63;3.43;;;10.90;99.90;;;;;;4892210;29;20426;-82
2023/04/13 07:40:31;;;;;;;3.63;3.43;;;11.00;99.90;;;;;;4879641;29;20916;-81
2023/04/13 07:42:57;;;;;;;3.70;3.50;;;11.00;99.90;;;;;;4895727;29;20444;-81
2023/04/13 07:45:28;;;;;;;3.40;3.20;;;11.00;99.90;;;;;;4879801;29;20407;-80
2023/04/13 07:47:53;;;;;;;3.60;3.40;;;11.10;99.90;;;;;;4896756;29;20540;-81
2023/04/13 07:50:19;;;;;;;3.53;3.30;;;11.20;99.90;;;;;;4893989;29;20470;-85
2023/04/13 07:52:45;;;;;;;3.77;3.57;;;11.20;99.90;;;;;;4882342;29;20187;-85
2023/04/13 07:55:11;;;;;;;3.53;3.33;;;11.30;99.90;;;;;;4902533;29;20478;-84
2023/04/13 07:57:37;;;;;;;4.00;3.80;;;11.30;99.90;;;;;;4886875;29;20465;-86
2023/04/13 08:00:04;;;;;;;3.80;3.60;;;11.40;99.90;;;;;;4887381;29;20193;-85
2023/04/13 08:02:31;;;;;;;3.67;3.47;;;11.50;99.90;;;;;;4884584;29;20203;-84
2023/04/13 08:04:57;;;;;;;3.23;3.03;;;11.70;99.90;;;;;;4898478;29;20436;-85
2023/04/13 08:07:23;;;;;;;2.67;2.57;;;11.50;99.90;;;;;;4895195;29;20777;-83
2023/04/13 08:09:51;;;;;;;3.33;3.13;;;11.60;99.90;;;;;;4895071;29;20492;-83
2023/04/13 08:12:17;;;;;;;4.67;3.80;;;11.70;99.90;;;;;;4895911;29;20434;-84
2023/04/13 08:14:43;;;;;;;3.47;3.17;;;11.70;99.90;;;;;;4890645;29;20450;-84
2023/04/13 08:17:10;;;;;;;3.17;2.93;;;11.70;99.90;;;;;;4896681;29;20443;-84
2023/04/13 08:19:36;;;;;;;3.53;3.33;;;11.70;99.90;;;;;;4896354;29;20215;-84
2023/04/13 08:22:02;;;;;;;3.27;3.07;;;11.70;99.90;;;;;;4872971;29;20477;-86
2023/04/13 08:24:28;;;;;;;3.27;3.07;;;11.80;99.90;;;;;;4902494;29;20452;-85
2023/04/13 08:26:56;;;;;;;3.70;3.40;;;11.80;99.90;;;;;;4896043;29;20203;-86
2023/04/13 08:29:23;;;;;;;4.07;3.87;;;11.90;99.90;;;;;;4894148;29;20420;-87
2023/04/13 08:31:49;;;;;;;3.40;3.00;;;11.90;99.90;;;;;;4895960;29;20421;-86
2023/04/13 08:34:17;;;;;;;3.20;3.03;;;12.00;99.90;;;;;;4886441;29;20782;-85
2023/04/13 08:36:44;;;;;;;3.30;3.10;;;11.90;99.90;;;;;;4887404;29;20459;-85
2023/04/13 08:39:10;;;;;;;3.97;3.77;;;11.90;99.90;;;;;;4898178;29;20486;-85
2023/04/13 08:41:37;;;;;;;3.87;3.57;;;11.80;99.90;;;;;;4906012;29;20461;-86
2023/04/13 08:44:06;;;;;;;3.63;3.30;;;11.80;99.90;;;;;;4880225;29;20479;-85
2023/04/13 08:46:33;;;;;;;3.83;3.63;;;11.80;99.90;;;;;;4900711;29;20416;-87
2023/04/13 08:49:00;;;;;;;3.17;3.07;;;11.90;99.90;;;;;;4901126;29;20907;-86
2023/04/13 08:51:28;;;;;;;4.10;3.70;;;11.80;99.90;;;;;;4906620;29;20424;-85
2023/04/13 08:53:57;;;;;;;3.53;3.23;;;11.60;99.90;;;;;;4901224;29;20411;-87
2023/04/13 08:56:24;;;;;;;2.70;2.50;;;11.60;99.90;;;;;;4887929;29;20496;-85
2023/04/13 08:58:56;;;;;;;3.63;2.90;;;11.70;99.90;;;;;;4902356;29;20419;-85
2023/04/13 09:01:22;;;;;;;3.80;3.50;;;11.70;99.90;;;;;;4874949;29;20515;-86
2023/04/13 09:03:53;;;;;;;3.00;2.90;;;11.70;99.90;;;;;;4891889;29;20750;-85
2023/04/13 09:06:33;;;;;;;4.27;3.97;;;11.80;99.90;;;;;;4887631;29;20419;-86
2023/04/13 09:09:04;;;;;;;3.47;2.97;;;11.80;99.90;;;;;;4891236;29;20424;-86
2023/04/13 09:11:31;;;;;;;3.83;3.67;;;11.80;99.90;;;;;;4891105;29;20498;-86
2023/04/13 09:13:56;;;;;;;3.10;3.00;;;11.90;99.90;;;;;;4890375;29;20412;-85
2023/04/13 09:16:22;;;;;;;4.30;4.00;;;11.90;99.90;;;;;;4899083;29;20915;-85
2023/04/13 09:18:56;;;;;;;3.80;3.50;;;12.00;99.90;;;;;;4899924;29;20208;-87
2023/04/13 09:21:23;;;;;;;4.40;4.10;;;12.10;99.90;;;;;;4896079;29;20599;-86
2023/04/13 09:23:58;;;;;;;4.07;3.80;;;12.10;99.90;;;;;;4898907;29;20522;-84
2023/04/13 09:26:25;;;;;;;3.43;3.20;;;12.10;99.90;;;;;;4873714;29;20429;-85
2023/04/13 09:28:53;;;;;;;4.40;2.60;;;12.20;99.90;;;;;;4900643;29;20748;-85
2023/04/13 09:31:19;;;;;;;2.90;2.70;;;12.20;99.90;;;;;;4903066;29;20444;-87
2023/04/13 09:33:47;;;;;;;2.47;2.27;;;12.30;99.90;;;;;;4905549;29;20466;-86
2023/04/13 09:36:16;;;;;;;2.53;2.37;;;12.20;99.90;;;;;;4912118;29;20503;-86
2023/04/13 09:38:44;;;;;;;2.33;2.23;;;12.20;99.90;;;;;;4900992;29;20425;-86
2023/04/13 09:41:12;;;;;;;2.67;2.47;;;12.20;99.90;;;;;;4890149;29;20466;-86
2023/04/13 09:43:38;;;;;;;4.87;4.37;;;12.20;99.90;;;;;;4900913;29;20427;-85
2023/04/13 09:46:11;;;;;;;3.93;3.40;;;12.30;99.90;;;;;;4902415;29;20431;-86
2023/04/13 09:48:37;;;;;;;3.30;3.10;;;12.40;99.90;;;;;;4901112;29;20428;-86
2023/04/13 09:51:06;;;;;;;3.40;3.10;;;12.50;99.90;;;;;;4901745;29;20471;-86
2023/04/13 09:53:42;;;;;;;3.07;2.87;;;12.50;99.90;;;;;;4868547;29;20455;-86
2023/04/13 09:56:08;;;;;;;3.07;2.87;;;12.60;99.90;;;;;;4899903;29;20477;-87
2023/04/13 09:58:45;;;;;;;4.10;3.13;;;12.50;99.90;;;;;;4882309;29;20933;-85
2023/04/13 10:01:14;;;;;;;3.30;3.00;;;12.50;99.90;;;;;;4883135;29;20514;-85
2023/04/13 10:03:41;;;;;;;3.20;3.00;;;12.50;99.90;;;;;;4901589;29;20431;-84
2023/04/13 10:06:08;;;;;;;4.20;3.90;;;12.50;99.90;;;;;;4902245;29;20427;-85
2023/04/13 10:08:36;;;;;;;3.23;2.80;;;12.40;99.90;;;;;;4884870;29;20420;-85
2023/04/13 10:11:03;;;;;;;2.77;2.57;;;12.40;99.90;;;;;;4903433;29;20416;-85
2023/04/13 10:13:57;;;;;;;2.70;2.57;;;12.30;99.90;;;;;;4902789;29;20932;-85
2023/04/13 10:16:41;;;;;;;3.10;2.90;;;12.40;99.90;;;;;;4903283;29;20440;-86
2023/04/13 10:19:18;;;;;;;3.77;3.47;;;12.40;99.90;;;;;;4902918;29;20479;-86
2023/04/13 10:21:47;;;;;;;3.50;3.30;;;12.40;99.90;;;;;;4902164;29;20451;-85
2023/04/13 10:24:14;;;;;;;3.80;3.50;;;12.60;99.90;;;;;;4903236;29;20421;-84
2023/04/13 10:26:42;;;;;;;3.33;3.13;;;12.70;99.90;;;;;;4904042;29;20413;-85
2023/04/13 10:29:10;;;;;;;4.60;3.33;;;12.90;99.90;;;;;;4887131;29;20452;-85
2023/04/13 10:31:41;;;;;;;3.80;3.50;;;12.90;99.90;;;;;;4897690;29;20447;-85
2023/04/13 10:34:08;;;;;;;3.50;3.40;;;13.00;99.90;;;;;;4923526;29;20399;-84
2023/04/13 10:36:39;;;;;;;3.03;2.83;;;13.10;99.90;;;;;;4905052;29;20445;-84
2023/04/13 10:39:07;;;;;;;4.20;3.03;;;13.20;99.90;;;;;;4906544;29;20414;-85
2023/04/13 10:41:34;;;;;;;3.30;3.10;;;13.20;99.90;;;;;;4906382;29;20479;-85
2023/04/13 10:44:07;;;;;;;5.53;3.87;;;13.30;99.90;;;;;;4908523;29;20429;-84
2023/04/13 10:46:34;;;;;;;3.57;3.37;;;13.30;99.90;;;;;;4908884;29;20425;-86
2023/04/13 10:49:01;;;;;;;6.83;3.70;;;13.30;99.90;;;;;;4908073;29;20497;-85
2023/04/13 10:51:41;;;;;;;4.27;3.83;;;13.20;99.30;;;;;;4926753;29;20476;-84
2023/04/13 10:54:08;;;;;;;5.63;3.13;;;13.10;98.30;;;;;;4911947;29;20463;-84
2023/04/13 10:56:34;;;;;;;4.20;3.47;;;13.00;99.50;;;;;;4928932;29;20471;-85
2023/04/13 10:59:00;;;;;;;4.30;3.90;;;13.00;99.90;;;;;;4892090;29;20476;-85
2023/04/13 11:01:29;;;;;;;4.50;4.00;;;13.00;99.80;;;;;;4897651;29;20493;-85
2023/04/13 11:03:56;;;;;;;5.17;3.73;;;13.00;99.90;;;;;;4899756;29;20424;-85
2023/04/13 11:06:26;;;;;;;5.37;4.60;;;13.20;99.90;;;;;;4897327;29;20906;-84
2023/04/13 11:09:00;;;;;;;8.63;4.00;;;13.20;99.80;;;;;;4899260;29;20435;-86
2023/04/13 11:11:27;;;;;;;8.97;3.90;;;13.30;99.40;;;;;;4899888;29;20470;-86
2023/04/13 11:13:53;;;;;;;5.10;3.30;;;13.30;98.90;;;;;;4899773;29;20429;-86
2023/04/13 11:16:19;;;;;;;5.13;3.70;;;13.20;98.90;;;;;;4881987;29;20507;-85
2023/04/13 11:18:45;;;;;;;5.13;3.63;;;13.20;98.00;;;;;;4899091;29;20185;-85
2023/04/13 11:21:17;;;;;;;5.57;3.90;;;13.20;98.70;;;;;;4883127;29;20466;-86
2023/04/13 11:23:52;;;;;;;6.93;3.97;;;13.20;98.70;;;;;;4867807;29;20245;-84
2023/04/13 11:26:29;;;;;;;4.40;3.63;;;13.30;99.10;;;;;;4899131;29;20759;-85
2023/04/13 11:28:56;;;;;;;10.57;4.30;;;13.40;99.90;;;;;;4881437;29;20419;-85
2023/04/13 11:31:36;;;;;;;4.50;4.10;;;13.60;98.60;;;;;;4880219;29;20426;-84
2023/04/13 11:34:04;;;;;;;8.13;4.93;;;13.60;97.00;;;;;;4898636;29;20562;-85
2023/04/13 11:36:31;;;;;;;5.50;3.30;;;13.60;97.10;;;;;;4900347;29;20420;-85
2023/04/13 11:38:59;;;;;;;4.70;3.87;;;13.70;98.70;;;;;;4881216;29;20450;-85
2023/04/13 11:41:27;;;;;;;4.90;3.67;;;13.70;98.70;;;;;;4888054;29;20493;-85
2023/04/13 11:43:53;;;;;;;6.20;3.97;;;13.70;97.30;;;;;;4898438;29;20477;-84
2023/04/13 11:46:23;;;;;;;4.33;3.83;;;13.70;98.70;;;;;;4888090;29;20422;-83
2023/04/13 11:48:51;;;;;;;7.23;4.47;;;13.70;97.80;;;;;;4897173;29;20457;-84
2023/04/13 11:51:19;;;;;;;5.63;5.13;;;13.70;98.50;;;;;;4886240;29;20507;-85
2023/04/13 11:53:45;;;;;;;4.60;4.10;;;13.80;98.80;;;;;;4883629;29;20453;-83
2023/04/13 11:56:13;;;;;;;7.40;5.10;;;13.90;98.70;;;;;;4914959;29;20507;-84
2023/04/13 11:58:41;;;;;;;6.10;5.60;;;13.90;96.00;;;;;;4883578;29;20490;-86
2023/04/13 12:01:08;;;;;;;6.17;5.20;;;14.00;96.40;;;;;;4899561;29;20462;-82
2023/04/13 12:03:38;;;;;;;9.40;4.20;;;14.10;97.00;;;;;;4904333;29;20775;-81
2023/04/13 12:06:05;;;;;;;5.60;4.57;;;14.10;96.40;;;;;;4898248;29;20439;-81
2023/04/13 12:08:31;;;;;;;4.80;4.40;;;14.10;97.10;;;;;;4895020;29;20871;-81
2023/04/13 12:11:00;;;;;;;6.30;3.67;;;14.10;96.20;;;;;;4896375;29;20442;-82
2023/04/13 12:13:26;;;;;;;7.53;3.83;;;14.10;96.90;;;;;;4902377;29;20466;-82
2023/04/13 12:15:52;;;;;;;6.77;3.87;;;14.00;95.70;;;;;;4902207;29;20608;-82
2023/04/13 12:18:22;;;;;;;3.77;3.10;;;14.00;95.50;;;;;;4899901;29;20191;-81
2023/04/13 12:20:48;;;;;;;7.67;3.67;;;14.00;95.10;;;;;;4899190;29;20820;-81
2023/04/13 12:23:22;;;;;;;5.60;3.40;;;14.00;95.70;;;;;;4892071;29;20948;-81
2023/04/13 12:26:01;;;;;;;4.27;3.87;;;13.90;95.20;;;;;;4892024;29;20441;-82
2023/04/13 12:28:32;;;;;;;5.53;3.50;;;13.90;95.60;;;;;;4896045;29;20442;-82
2023/04/13 12:31:06;;;;;;;4.40;3.73;;;13.90;96.20;;;;;;4888248;29;20783;-81
2023/04/13 12:33:32;;;;;;;4.20;3.40;;;13.90;95.40;;;;;;4898708;29;20482;-82
2023/04/13 12:35:58;;;;;;;5.07;3.97;;;13.90;94.70;;;;;;4903216;29;20438;-82
2023/04/13 12:38:25;;;;;;;6.00;3.80;;;13.90;94.80;;;;;;4901603;29;20417;-82
2023/04/13 12:40:57;;;;;;;3.67;3.30;;;14.00;93.80;;;;;;4898927;29;20479;-81
2023/04/13 12:43:24;;;;;;;8.57;3.47;;;14.00;94.20;;;;;;4891439;29;20439;-81
2023/04/13 12:45:51;;;;;;;4.57;2.90;;;14.00;92.90;;;;;;4900214;29;20441;-82
2023/04/13 12:48:18;;;;;;;5.00;2.90;;;14.10;93.00;;;;;;4900586;29;20470;-83
2023/04/13 12:50:44;;;;;;;4.30;3.00;;;14.10;93.00;;;;;;4897574;29;20435;-82
2023/04/13 12:53:11;;;;;;;4.67;2.53;;;14.20;94.10;;;;;;4901193;29;20525;-81